sensor_id;sensor_type;location;lat;lon;timestamp;pressure;altitude;pressure_sealevel;temperature;humidity
68994;BME280;56054;50.968;5.816;2023-04-19T00:02:52;101672.88;;;10.54;94.05
68994;BME280;56054;50.968;5.816;2023-04-19T00:05:52;101672.97;;;10.56;94.14
68994;BME280;56054;50.968;5.816;2023-04-19T00:08:53;101674.13;;;10.59;94.23
68994;BME280;56054;50.968;5.816;2023-04-19T00:11:54;101677.50;;;10.58;93.73
68994;BME280;56054;50.968;5.816;2023-04-19T00:14:54;101660.34;;;10.60;94.21
68994;BME280;56054;50.968;5.816;2023-04-19T00:17:55;101671.66;;;10.61;93.85
68994;BME280;56054;50.968;5.816;2023-04-19T00:20:56;101670.06;;;10.63;93.55
68994;BME280;56054;50.968;5.816;2023-04-19T00:23:56;101665.81;;;10.63;93.69
68994;BME280;56054;50.968;5.816;2023-04-19T00:26:57;101668.50;;;10.65;93.79
68994;BME280;56054;50.968;5.816;2023-04-19T00:29:57;101666.03;;;10.66;93.61
68994;BME280;56054;50.968;5.816;2023-04-19T00:32:58;101664.19;;;10.65;93.58
68994;BME280;56054;50.968;5.816;2023-04-19T00:35:59;101672.13;;;10.67;93.38
68994;BME280;56054;50.968;5.816;2023-04-19T00:38:59;101668.50;;;10.65;93.81
68994;BME280;56054;50.968;5.816;2023-04-19T00:42:00;101669.53;;;10.67;93.96
68994;BME280;56054;50.968;5.816;2023-04-19T00:45:00;101674.84;;;10.68;93.46
68994;BME280;56054;50.968;5.816;2023-04-19T00:48:01;101673.28;;;10.70;93.18
68994;BME280;56054;50.968;5.816;2023-04-19T00:51:01;101670.56;;;10.69;93.21
68994;BME280;56054;50.968;5.816;2023-04-19T00:54:02;101673.03;;;10.67;93.29
68994;BME280;56054;50.968;5.816;2023-04-19T00:57:03;101663.53;;;10.68;93.32
68994;BME280;56054;50.968;5.816;2023-04-19T01:00:06;101667.16;;;10.70;93.53
68994;BME280;56054;50.968;5.816;2023-04-19T01:03:06;101661.72;;;10.67;94.02
68994;BME280;56054;50.968;5.816;2023-04-19T01:06:07;101673.03;;;10.67;93.89
68994;BME280;56054;50.968;5.816;2023-04-19T01:09:07;101663.53;;;10.68;93.89
68994;BME280;56054;50.968;5.816;2023-04-19T01:12:07;101663.31;;;10.65;94.04
68994;BME280;56054;50.968;5.816;2023-04-19T01:15:08;101661.50;;;10.64;94.03
68994;BME280;56054;50.968;5.816;2023-04-19T01:18:09;101653.56;;;10.62;94.28
68994;BME280;56054;50.968;5.816;2023-04-19T01:21:09;101654.91;;;10.57;94.77
68994;BME280;56054;50.968;5.816;2023-04-19T01:27:42;101654.78;;;10.56;95.13
68994;BME280;56054;50.968;5.816;2023-04-19T01:30:43;101652.84;;;10.53;95.21
68994;BME280;56054;50.968;5.816;2023-04-19T01:33:43;101651.84;;;10.51;95.60
68994;BME280;56054;50.968;5.816;2023-04-19T01:36:44;101651.59;;;10.48;95.71
68994;BME280;56054;50.968;5.816;2023-04-19T01:39:45;101659.66;;;10.51;95.64
68994;BME280;56054;50.968;5.816;2023-04-19T01:42:46;101651.84;;;10.51;95.95
68994;BME280;56054;50.968;5.816;2023-04-19T01:45:46;101649.13;;;10.49;95.98
68994;BME280;56054;50.968;5.816;2023-04-19T01:48:47;101654.47;;;10.51;95.69
68994;BME280;56054;50.968;5.816;2023-04-19T01:51:47;101655.13;;;10.48;95.83
68994;BME280;56054;50.968;5.816;2023-04-19T01:54:47;101655.22;;;10.50;96.19
68994;BME280;56054;50.968;5.816;2023-04-19T01:57:51;101651.72;;;10.49;96.51
68994;BME280;56054;50.968;5.816;2023-04-19T02:00:52;101643.78;;;10.48;96.51
68994;BME280;56054;50.968;5.816;2023-04-19T02:03:52;101651.59;;;10.48;96.72
68994;BME280;56054;50.968;5.816;2023-04-19T02:06:53;101643.78;;;10.48;96.21
68994;BME280;56054;50.968;5.816;2023-04-19T02:09:53;101639.53;;;10.48;96.66
68994;BME280;56054;50.968;5.816;2023-04-19T02:12:54;101634.19;;;10.47;97.07
68994;BME280;56054;50.968;5.816;2023-04-19T02:15:54;101629.78;;;10.46;97.16
68994;BME280;56054;50.968;5.816;2023-04-19T02:18:55;101635.91;;;10.46;97.33
68994;BME280;56054;50.968;5.816;2023-04-19T02:21:55;101622.53;;;10.42;97.58
68994;BME280;56054;50.968;5.816;2023-04-19T02:24:57;101630.75;;;10.36;97.65
68994;BME280;56054;50.968;5.816;2023-04-19T02:28:04;101621.81;;;10.33;97.84
68994;BME280;56054;50.968;5.816;2023-04-19T02:31:05;101627.16;;;10.24;99.00
68994;BME280;56054;50.968;5.816;2023-04-19T02:34:08;101628.84;;;10.23;99.06
68994;BME280;56054;50.968;5.816;2023-04-19T02:37:08;101620.97;;;10.22;99.38
68994;BME280;56054;50.968;5.816;2023-04-19T02:40:09;101632.13;;;10.21;99.24
68994;BME280;56054;50.968;5.816;2023-04-19T02:43:09;101630.19;;;10.18;99.77
68994;BME280;56054;50.968;5.816;2023-04-19T02:46:10;101631.16;;;10.08;100.00
68994;BME280;56054;50.968;5.816;2023-04-19T02:49:10;101628.19;;;10.04;100.00
68994;BME280;56054;50.968;5.816;2023-04-19T02:52:11;101628.19;;;10.04;100.00
68994;BME280;56054;50.968;5.816;2023-04-19T02:55:14;101633.00;;;9.99;100.00
68994;BME280;56054;50.968;5.816;2023-04-19T02:58:14;101631.06;;;9.97;100.00
68994;BME280;56054;50.968;5.816;2023-04-19T03:01:41;101636.03;;;9.94;100.00
68994;BME280;56054;50.968;5.816;2023-04-19T03:04:42;101636.16;;;9.95;100.00
68994;BME280;56054;50.968;5.816;2023-04-19T03:07:42;101629.44;;;9.87;100.00
68994;BME280;56054;50.968;5.816;2023-04-19T03:10:43;101631.00;;;9.85;100.00
68994;BME280;56054;50.968;5.816;2023-04-19T03:13:44;101627.94;;;9.79;100.00
68994;BME280;56054;50.968;5.816;2023-04-19T03:16:46;101628.28;;;9.83;100.00
68994;BME280;56054;50.968;5.816;2023-04-19T03:19:46;101627.94;;;9.79;100.00
68994;BME280;56054;50.968;5.816;2023-04-19T03:22:49;101642.09;;;9.72;100.00
68994;BME280;56054;50.968;5.816;2023-04-19T03:25:50;101638.22;;;9.67;100.00
68994;BME280;56054;50.968;5.816;2023-04-19T03:29:13;101634.81;;;9.78;100.00
68994;BME280;56054;50.968;5.816;2023-04-19T03:32:19;101626.59;;;9.84;100.00
68994;BME280;56054;50.968;5.816;2023-04-19T03:35:19;101630.19;;;9.64;100.00
68994;BME280;56054;50.968;5.816;2023-04-19T03:38:21;101630.19;;;9.64;100.00
68994;BME280;56054;50.968;5.816;2023-04-19T03:41:24;101627.47;;;9.62;100.00
68994;BME280;56054;50.968;5.816;2023-04-19T03:45:06;101618.13;;;9.64;100.00
68994;BME280;56054;50.968;5.816;2023-04-19T03:48:13;101620.28;;;9.70;100.00
68994;BME280;56054;50.968;5.816;2023-04-19T03:51:13;101623.25;;;9.75;100.00
68994;BME280;56054;50.968;5.816;2023-04-19T03:54:14;101629.34;;;9.75;100.00
68994;BME280;56054;50.968;5.816;2023-04-19T03:57:15;101621.31;;;9.72;100.00
68994;BME280;56054;50.968;5.816;2023-04-19T04:00:16;101616.38;;;9.75;100.00
68994;BME280;56054;50.968;5.816;2023-04-19T04:03:20;101616.13;;;9.72;100.00
68994;BME280;56054;50.968;5.816;2023-04-19T04:06:21;101606.00;;;9.75;100.00
68994;BME280;56054;50.968;5.816;2023-04-19T04:09:22;101619.75;;;9.74;100.00
68994;BME280;56054;50.968;5.816;2023-04-19T04:12:23;101616.50;;;9.77;100.00
68994;BME280;56054;50.968;5.816;2023-04-19T04:25:10;101625.31;;;9.79;100.00
68994;BME280;56054;50.968;5.816;2023-04-19T04:28:12;101625.31;;;9.79;100.00
68994;BME280;56054;50.968;5.816;2023-04-19T04:31:14;101622.06;;;9.81;100.00
68994;BME280;56054;50.968;5.816;2023-04-19T04:34:15;101620.38;;;9.82;100.00
68994;BME280;56054;50.968;5.816;2023-04-19T04:37:23;101627.25;;;9.81;100.00
68994;BME280;56054;50.968;5.816;2023-04-19T04:40:24;101627.78;;;9.88;100.00
68994;BME280;56054;50.968;5.816;2023-04-19T04:43:25;101630.38;;;9.88;100.00
68994;BME280;56054;50.968;5.816;2023-04-19T04:46:26;101633.19;;;9.91;100.00
68994;BME280;56054;50.968;5.816;2023-04-19T04:49:27;101627.44;;;9.95;100.00
68994;BME280;56054;50.968;5.816;2023-04-19T04:52:28;101632.00;;;9.97;100.00
68994;BME280;56054;50.968;5.816;2023-04-19T04:55:37;101632.91;;;9.98;100.00
68994;BME280;56054;50.968;5.816;2023-04-19T04:58:38;101637.81;;;10.05;100.00
68994;BME280;56054;50.968;5.816;2023-04-19T05:01:42;101642.44;;;10.09;100.00
68994;BME280;56054;50.968;5.816;2023-04-19T05:04:43;101638.28;;;10.11;100.00
68994;BME280;56054;50.968;5.816;2023-04-19T05:07:43;101637.75;;;10.15;100.00
68994;BME280;56054;50.968;5.816;2023-04-19T05:10:44;101637.09;;;10.18;100.00
68994;BME280;56054;50.968;5.816;2023-04-19T05:13:46;101629.41;;;10.19;100.00
68994;BME280;56054;50.968;5.816;2023-04-19T05:16:47;101630.31;;;10.20;100.00
68994;BME280;56054;50.968;5.816;2023-04-19T05:19:47;101628.75;;;10.22;100.00
68994;BME280;56054;50.968;5.816;2023-04-19T05:22:48;101628.09;;;10.24;100.00
68994;BME280;56054;50.968;5.816;2023-04-19T05:25:48;101635.75;;;10.23;100.00
68994;BME280;56054;50.968;5.816;2023-04-19T05:28:49;101635.09;;;10.25;100.00
68994;BME280;56054;50.968;5.816;2023-04-19T05:31:59;101627.28;;;10.25;100.00
68994;BME280;56054;50.968;5.816;2023-04-19T05:35:08;101630.75;;;10.36;100.00
68994;BME280;56054;50.968;5.816;2023-04-19T05:38:09;101622.78;;;10.45;100.00
68994;BME280;56054;50.968;5.816;2023-04-19T05:41:09;101635.47;;;10.52;100.00
68994;BME280;56054;50.968;5.816;2023-04-19T05:44:09;101628.47;;;10.63;100.00
68994;BME280;56054;50.968;5.816;2023-04-19T05:47:10;101625.13;;;10.64;100.00
68994;BME280;56054;50.968;5.816;2023-04-19T05:50:34;101628.13;;;10.58;100.00
68994;BME280;56054;50.968;5.816;2023-04-19T05:53:55;101626.63;;;10.50;100.00
68994;BME280;56054;50.968;5.816;2023-04-19T05:56:55;101627.97;;;10.45;100.00
68994;BME280;56054;50.968;5.816;2023-04-19T05:59:56;101618.25;;;10.42;100.00
68994;BME280;56054;50.968;5.816;2023-04-19T06:03:00;101625.00;;;10.40;100.00
68994;BME280;56054;50.968;5.816;2023-04-19T06:06:00;101619.72;;;10.39;100.00
68994;BME280;56054;50.968;5.816;2023-04-19T06:09:01;101620.25;;;10.35;100.00
68994;BME280;56054;50.968;5.816;2023-04-19T06:12:01;101632.38;;;10.46;100.00
68994;BME280;56054;50.968;5.816;2023-04-19T06:15:03;101631.47;;;10.45;100.00
68994;BME280;56054;50.968;5.816;2023-04-19T06:18:04;101625.50;;;10.46;100.00
68994;BME280;56054;50.968;5.816;2023-04-19T06:21:05;101632.63;;;10.49;100.00
68994;BME280;56054;50.968;5.816;2023-04-19T06:24:06;101620.09;;;10.55;100.00
68994;BME280;56054;50.968;5.816;2023-04-19T06:27:06;101630.09;;;10.61;100.00
68994;BME280;56054;50.968;5.816;2023-04-19T06:30:07;101628.25;;;10.60;100.00
68994;BME280;56054;50.968;5.816;2023-04-19T06:33:08;101633.94;;;10.66;100.00
68994;BME280;56054;50.968;5.816;2023-04-19T06:36:08;101633.00;;;10.65;100.00
68994;BME280;56054;50.968;5.816;2023-04-19T06:39:09;101628.38;;;10.61;100.00
68994;BME280;56054;50.968;5.816;2023-04-19T06:42:09;101630.97;;;10.61;100.00
68994;BME280;56054;50.968;5.816;2023-04-19T06:45:10;101642.72;;;10.68;100.00
68994;BME280;56054;50.968;5.816;2023-04-19T06:48:10;101637.66;;;10.69;100.00
68994;BME280;56054;50.968;5.816;2023-04-19T06:51:11;101642.31;;;10.74;100.00
68994;BME280;56054;50.968;5.816;2023-04-19T06:54:11;101640.97;;;10.79;100.00
68994;BME280;56054;50.968;5.816;2023-04-19T06:57:12;101643.09;;;10.73;100.00
68994;BME280;56054;50.968;5.816;2023-04-19T07:00:22;101631.59;;;10.81;100.00
68994;BME280;56054;50.968;5.816;2023-04-19T07:09:46;101642.97;;;11.05;100.00
68994;BME280;56054;50.968;5.816;2023-04-19T07:12:47;101646.47;;;11.05;99.58
68994;BME280;56054;50.968;5.816;2023-04-19T07:15:47;101635.84;;;11.26;99.21
68994;BME280;56054;50.968;5.816;2023-04-19T07:18:48;101631.91;;;11.54;97.35
68994;BME280;56054;50.968;5.816;2023-04-19T07:21:49;101637.66;;;11.74;96.26
68994;BME280;56054;50.968;5.816;2023-04-19T07:24:49;101634.59;;;11.68;93.75
68994;BME280;56054;50.968;5.816;2023-04-19T07:27:53;101640.03;;;11.94;91.57
68994;BME280;56054;50.968;5.816;2023-04-19T07:30:54;101638.56;;;12.10;89.58
68994;BME280;56054;50.968;5.816;2023-04-19T07:33:54;101636.75;;;11.97;89.99
68994;BME280;56054;50.968;5.816;2023-04-19T07:36:55;101623.38;;;11.92;88.88
68994;BME280;56054;50.968;5.816;2023-04-19T07:39:55;101634.78;;;12.18;87.23
68994;BME280;56054;50.968;5.816;2023-04-19T07:42:55;101643.69;;;12.21;84.63
68994;BME280;56054;50.968;5.816;2023-04-19T07:45:56;101629.13;;;12.12;82.32
68994;BME280;56054;50.968;5.816;2023-04-19T07:48:56;101634.03;;;12.07;81.93
68994;BME280;56054;50.968;5.816;2023-04-19T07:51:57;101630.94;;;12.13;81.30
68994;BME280;56054;50.968;5.816;2023-04-19T07:58:16;101630.50;;;12.69;78.26
68994;BME280;56054;50.968;5.816;2023-04-19T08:01:16;101628.34;;;12.63;77.32
68994;BME280;56054;50.968;5.816;2023-04-19T08:04:16;101633.44;;;12.73;75.72
68994;BME280;56054;50.968;5.816;2023-04-19T08:07:17;101632.72;;;12.76;75.58
68994;BME280;56054;50.968;5.816;2023-04-19T08:10:18;101628.34;;;12.63;75.73
68994;BME280;56054;50.968;5.816;2023-04-19T08:13:18;101628.41;;;12.76;74.58
68994;BME280;56054;50.968;5.816;2023-04-19T08:16:21;101625.94;;;12.91;74.78
68994;BME280;56054;50.968;5.816;2023-04-19T08:19:21;101624.97;;;13.02;73.69
68994;BME280;56054;50.968;5.816;2023-04-19T08:22:21;101620.84;;;12.93;73.40
68994;BME280;56054;50.968;5.816;2023-04-19T08:25:22;101619.00;;;13.30;73.39
68994;BME280;56054;50.968;5.816;2023-04-19T08:28:25;101622.19;;;13.13;73.04
68994;BME280;56054;50.968;5.816;2023-04-19T08:31:25;101610.59;;;12.96;72.35
68994;BME280;56054;50.968;5.816;2023-04-19T08:34:27;101614.97;;;13.22;71.81
68994;BME280;56054;50.968;5.816;2023-04-19T08:37:27;101618.06;;;13.16;71.75
68994;BME280;56054;50.968;5.816;2023-04-19T08:40:29;101617.34;;;13.19;72.77
68994;BME280;56054;50.968;5.816;2023-04-19T08:43:34;101621.91;;;13.48;73.11
68994;BME280;56054;50.968;5.816;2023-04-19T08:46:35;101611.88;;;13.67;72.14
68994;BME280;56054;50.968;5.816;2023-04-19T08:49:35;101604.97;;;13.68;72.18
68994;BME280;56054;50.968;5.816;2023-04-19T08:52:38;101612.16;;;13.85;72.56
68994;BME280;56054;50.968;5.816;2023-04-19T08:55:40;101613.78;;;13.43;72.54
68994;BME280;56054;50.968;5.816;2023-04-19T08:58:41;101598.50;;;13.76;72.16
68994;BME280;56054;50.968;5.816;2023-04-19T09:01:41;101605.84;;;13.68;71.71
68994;BME280;56054;50.968;5.816;2023-04-19T09:04:42;101604.44;;;13.74;70.76
68994;BME280;56054;50.968;5.816;2023-04-19T09:07:43;101606.72;;;13.82;69.98
68994;BME280;56054;50.968;5.816;2023-04-19T09:14:27;101583.38;;;13.99;68.92
68994;BME280;56054;50.968;5.816;2023-04-19T09:17:27;101591.50;;;14.03;67.39
68994;BME280;56054;50.968;5.816;2023-04-19T09:20:36;101592.69;;;14.08;66.78
68994;BME280;56054;50.968;5.816;2023-04-19T09:23:45;101587.72;;;13.85;66.82
68994;BME280;56054;50.968;5.816;2023-04-19T09:26:53;101581.72;;;14.14;66.98
68994;BME280;56054;50.968;5.816;2023-04-19T09:29:55;101590.06;;;14.22;66.32
68994;BME280;56054;50.968;5.816;2023-04-19T09:32:56;101583.78;;;14.48;64.35
68994;BME280;56054;50.968;5.816;2023-04-19T09:35:57;101585.72;;;14.22;62.69
68994;BME280;56054;50.968;5.816;2023-04-19T09:38:59;101585.59;;;14.34;61.78
68994;BME280;56054;50.968;5.816;2023-04-19T09:42:00;101578.97;;;14.26;62.13
68994;BME280;56054;50.968;5.816;2023-04-19T09:45:00;101580.44;;;14.07;60.42
68994;BME280;56054;50.968;5.816;2023-04-19T09:48:03;101570.69;;;14.33;59.79
68994;BME280;56054;50.968;5.816;2023-04-19T09:51:04;101571.34;;;14.44;57.69
68994;BME280;56054;50.968;5.816;2023-04-19T09:54:05;101571.13;;;14.26;57.63
68994;BME280;56054;50.968;5.816;2023-04-19T09:57:07;101576.38;;;14.41;57.20
68994;BME280;56054;50.968;5.816;2023-04-19T10:00:08;101558.63;;;14.63;57.84
68994;BME280;56054;50.968;5.816;2023-04-19T10:03:14;101570.97;;;14.66;55.69
68994;BME280;56054;50.968;5.816;2023-04-19T10:06:17;101569.44;;;14.99;56.07
68994;BME280;56054;50.968;5.816;2023-04-19T10:09:18;101568.72;;;15.02;54.10
68994;BME280;56054;50.968;5.816;2023-04-19T10:12:21;101559.50;;;14.93;52.17
68994;BME280;56054;50.968;5.816;2023-04-19T10:15:23;101559.97;;;14.86;51.62
68994;BME280;56054;50.968;5.816;2023-04-19T10:18:24;101548.13;;;15.08;50.96
68994;BME280;56054;50.968;5.816;2023-04-19T10:21:26;101550.13;;;14.97;49.52
68994;BME280;56054;50.968;5.816;2023-04-19T10:24:27;101549.94;;;14.94;48.05
68994;BME280;56054;50.968;5.816;2023-04-19T10:27:28;101552.22;;;14.73;48.90
68994;BME280;56054;50.968;5.816;2023-04-19T10:30:28;101544.94;;;15.28;48.82
68994;BME280;56054;50.968;5.816;2023-04-19T10:33:36;101546.72;;;14.83;47.50
68994;BME280;56054;50.968;5.816;2023-04-19T10:36:37;101548.59;;;14.71;47.28
68994;BME280;56054;50.968;5.816;2023-04-19T10:39:42;101546.16;;;14.89;46.32
68994;BME280;56054;50.968;5.816;2023-04-19T10:49:27;101541.38;;;14.96;43.52
68994;BME280;56054;50.968;5.816;2023-04-19T10:52:28;101549.38;;;14.55;42.77
68994;BME280;56054;50.968;5.816;2023-04-19T10:55:32;101538.94;;;14.70;43.58
68994;BME280;56054;50.968;5.816;2023-04-19T11:02:03;101533.91;;;14.73;43.52
68994;BME280;56054;50.968;5.816;2023-04-19T11:05:04;101536.66;;;15.06;44.65
68994;BME280;56054;50.968;5.816;2023-04-19T11:08:04;101534.97;;;14.91;44.69
68994;BME280;56054;50.968;5.816;2023-04-19T11:11:05;101532.44;;;15.08;42.75
68994;BME280;56054;50.968;5.816;2023-04-19T11:14:06;101529.91;;;14.94;42.54
68994;BME280;56054;50.968;5.816;2023-04-19T11:20:22;101508.47;;;15.16;42.16
68994;BME280;56054;50.968;5.816;2023-04-19T11:23:22;101505.34;;;15.22;42.08
68994;BME280;56054;50.968;5.816;2023-04-19T11:26:23;101504.19;;;14.72;38.64
68994;BME280;56054;50.968;5.816;2023-04-19T11:29:23;101492.03;;;15.19;38.91
68994;BME280;56054;50.968;5.816;2023-04-19T11:38:46;101486.84;;;15.35;39.54
68994;BME280;56054;50.968;5.816;2023-04-19T11:41:46;101485.59;;;15.44;39.30
68994;BME280;56054;50.968;5.816;2023-04-19T11:44:48;101482.97;;;15.12;37.45
68994;BME280;56054;50.968;5.816;2023-04-19T11:47:49;101481.34;;;15.14;37.35
68994;BME280;56054;50.968;5.816;2023-04-19T11:50:57;101476.31;;;15.03;37.09
68994;BME280;56054;50.968;5.816;2023-04-19T11:53:57;101477.78;;;15.14;37.11
68994;BME280;56054;50.968;5.816;2023-04-19T11:57:06;101478.06;;;15.18;37.51
68994;BME280;56054;50.968;5.816;2023-04-19T12:00:07;101483.25;;;14.87;37.09
68994;BME280;56054;50.968;5.816;2023-04-19T12:03:14;101463.75;;;15.12;35.72
68994;BME280;56054;50.968;5.816;2023-04-19T12:09:22;101474.06;;;15.25;33.78
68994;BME280;56054;50.968;5.816;2023-04-19T12:12:31;101465.66;;;15.31;33.09
68994;BME280;56054;50.968;5.816;2023-04-19T12:15:43;101458.69;;;15.15;32.16
68994;BME280;56054;50.968;5.816;2023-04-19T12:18:48;101453.69;;;15.19;32.70
68994;BME280;56054;50.968;5.816;2023-04-19T12:21:49;101460.50;;;15.32;33.69
68994;BME280;56054;50.968;5.816;2023-04-19T12:24:50;101453.81;;;15.37;33.46
68994;BME280;56054;50.968;5.816;2023-04-19T12:27:52;101456.53;;;15.08;32.53
68994;BME280;56054;50.968;5.816;2023-04-19T12:30:52;101456.31;;;15.36;31.82
68994;BME280;56054;50.968;5.816;2023-04-19T12:33:53;101435.78;;;15.27;31.72
68994;BME280;56054;50.968;5.816;2023-04-19T12:36:54;101446.22;;;15.42;33.32
68994;BME280;56054;50.968;5.816;2023-04-19T12:39:55;101439.50;;;15.47;34.73
68994;BME280;56054;50.968;5.816;2023-04-19T12:42:55;101444.63;;;15.46;35.17
68994;BME280;56054;50.968;5.816;2023-04-19T12:45:56;101447.16;;;15.28;34.13
68994;BME280;56054;50.968;5.816;2023-04-19T12:48:56;101438.28;;;15.57;34.73
68994;BME280;56054;50.968;5.816;2023-04-19T12:51:57;101441.72;;;15.56;33.12
68994;BME280;56054;50.968;5.816;2023-04-19T12:54:57;101432.84;;;15.37;32.50
68994;BME280;56054;50.968;5.816;2023-04-19T12:57:58;101437.28;;;15.55;33.50
68994;BME280;56054;50.968;5.816;2023-04-19T13:00:58;101435.31;;;15.34;33.03
68994;BME280;56054;50.968;5.816;2023-04-19T13:03:58;101419.88;;;15.39;32.84
68994;BME280;56054;50.968;5.816;2023-04-19T13:06:59;101409.97;;;15.66;33.17
68994;BME280;56054;50.968;5.816;2023-04-19T13:10:00;101414.34;;;15.51;34.22
68994;BME280;56054;50.968;5.816;2023-04-19T13:13:01;101408.16;;;15.65;32.60
68994;BME280;56054;50.968;5.816;2023-04-19T13:16:01;101414.53;;;15.54;32.56
68994;BME280;56054;50.968;5.816;2023-04-19T13:19:02;101398.94;;;15.72;32.40
68994;BME280;56054;50.968;5.816;2023-04-19T13:22:02;101392.34;;;15.47;32.62
68994;BME280;56054;50.968;5.816;2023-04-19T13:25:03;101394.09;;;15.63;32.45
68994;BME280;56054;50.968;5.816;2023-04-19T13:28:04;101389.97;;;15.84;32.09
68994;BME280;56054;50.968;5.816;2023-04-19T13:31:05;101394.19;;;15.81;32.02
68994;BME280;56054;50.968;5.816;2023-04-19T13:34:11;101397.03;;;15.69;32.83
68994;BME280;56054;50.968;5.816;2023-04-19T13:37:11;101394.63;;;15.57;34.06
68994;BME280;56054;50.968;5.816;2023-04-19T13:40:12;101390.47;;;15.94;34.09
68994;BME280;56054;50.968;5.816;2023-04-19T13:43:13;101378.19;;;15.93;32.97
68994;BME280;56054;50.968;5.816;2023-04-19T13:46:13;101376.34;;;16.08;32.92
68994;BME280;56054;50.968;5.816;2023-04-19T13:49:13;101372.25;;;16.13;33.11
68994;BME280;56054;50.968;5.816;2023-04-19T13:52:17;101372.47;;;15.83;32.97
68994;BME280;56054;50.968;5.816;2023-04-19T13:55:18;101370.72;;;16.00;32.81
68994;BME280;56054;50.968;5.816;2023-04-19T13:58:19;101369.72;;;16.15;32.91
68994;BME280;56054;50.968;5.816;2023-04-19T14:01:19;101362.66;;;16.14;32.85
68994;BME280;56054;50.968;5.816;2023-04-19T14:04:28;101367.31;;;16.19;32.63
68994;BME280;56054;50.968;5.816;2023-04-19T14:07:28;101358.91;;;16.09;32.85
68994;BME280;56054;50.968;5.816;2023-04-19T14:10:31;101357.75;;;15.86;33.11
68994;BME280;56054;50.968;5.816;2023-04-19T14:13:31;101342.00;;;15.86;33.04
68994;BME280;56054;50.968;5.816;2023-04-19T14:16:32;101345.75;;;16.07;33.09
68994;BME280;56054;50.968;5.816;2023-04-19T14:19:32;101347.31;;;15.87;32.71
68994;BME280;56054;50.968;5.816;2023-04-19T14:22:35;101336.25;;;15.93;32.53
68994;BME280;56054;50.968;5.816;2023-04-19T14:25:35;101347.56;;;15.92;32.37
68994;BME280;56054;50.968;5.816;2023-04-19T14:28:36;101331.25;;;15.97;32.07
68994;BME280;56054;50.968;5.816;2023-04-19T14:31:36;101330.28;;;15.95;32.01
68994;BME280;56054;50.968;5.816;2023-04-19T14:34:50;101324.56;;;15.86;31.66
68994;BME280;56054;50.968;5.816;2023-04-19T14:37:50;101335.16;;;16.05;32.18
68994;BME280;56054;50.968;5.816;2023-04-19T14:40:51;101329.13;;;16.24;32.27
68994;BME280;56054;50.968;5.816;2023-04-19T14:43:51;101323.28;;;16.12;31.63
68994;BME280;56054;50.968;5.816;2023-04-19T14:46:52;101325.50;;;16.04;31.63
68994;BME280;56054;50.968;5.816;2023-04-19T14:49:52;101318.09;;;15.79;31.79
68994;BME280;56054;50.968;5.816;2023-04-19T14:52:53;101319.28;;;16.20;31.64
68994;BME280;56054;50.968;5.816;2023-04-19T14:55:55;101311.44;;;16.20;31.12
68994;BME280;56054;50.968;5.816;2023-04-19T14:58:56;101305.66;;;16.27;31.08
68994;BME280;56054;50.968;5.816;2023-04-19T15:01:56;101311.56;;;16.23;31.27
68994;BME280;56054;50.968;5.816;2023-04-19T15:04:56;101304.06;;;16.13;31.63
68994;BME280;56054;50.968;5.816;2023-04-19T15:07:57;101300.19;;;16.05;31.13
68994;BME280;56054;50.968;5.816;2023-04-19T15:10:57;101293.59;;;16.13;31.43
68994;BME280;56054;50.968;5.816;2023-04-19T15:17:00;101301.69;;;16.00;31.03
68994;BME280;56054;50.968;5.816;2023-04-19T15:20:01;101297.94;;;15.95;31.04
68994;BME280;56054;50.968;5.816;2023-04-19T15:23:01;101292.06;;;15.66;31.20
68994;BME280;56054;50.968;5.816;2023-04-19T15:26:01;101295.25;;;16.29;31.42
68994;BME280;56054;50.968;5.816;2023-04-19T15:29:02;101295.72;;;15.86;30.82
68994;BME280;56054;50.968;5.816;2023-04-19T15:32:02;101299.50;;;15.75;31.11
68994;BME280;56054;50.968;5.816;2023-04-19T15:35:04;101288.88;;;16.06;31.92
68994;BME280;56054;50.968;5.816;2023-04-19T15:38:04;101293.22;;;16.05;31.30
68994;BME280;56054;50.968;5.816;2023-04-19T15:41:05;101278.28;;;15.87;31.77
68994;BME280;56054;50.968;5.816;2023-04-19T15:44:05;101284.28;;;15.84;31.18
68994;BME280;56054;50.968;5.816;2023-04-19T15:47:05;101280.38;;;15.59;31.26
68994;BME280;56054;50.968;5.816;2023-04-19T15:50:06;101274.53;;;15.81;31.58
68994;BME280;56054;50.968;5.816;2023-04-19T15:53:07;101283.31;;;15.66;31.93
68994;BME280;56054;50.968;5.816;2023-04-19T15:56:08;101290.88;;;15.94;31.64
68994;BME280;56054;50.968;5.816;2023-04-19T15:59:09;101282.75;;;15.38;31.34
68994;BME280;56054;50.968;5.816;2023-04-19T16:02:09;101296.44;;;15.33;31.58
68994;BME280;56054;50.968;5.816;2023-04-19T16:05:15;101278.69;;;15.44;31.64
68994;BME280;56054;50.968;5.816;2023-04-19T16:08:17;101276.34;;;15.66;32.21
68994;BME280;56054;50.968;5.816;2023-04-19T16:11:18;101270.44;;;15.19;32.79
68994;BME280;56054;50.968;5.816;2023-04-19T16:14:19;101279.59;;;15.44;32.37
68994;BME280;56054;50.968;5.816;2023-04-19T16:17:19;101284.09;;;15.30;32.22
68994;BME280;56054;50.968;5.816;2023-04-19T16:20:20;101267.41;;;15.28;32.27
68994;BME280;56054;50.968;5.816;2023-04-19T16:23:22;101270.94;;;15.12;32.41
68994;BME280;56054;50.968;5.816;2023-04-19T16:26:22;101268.88;;;15.39;32.98
68994;BME280;56054;50.968;5.816;2023-04-19T16:29:23;101274.84;;;15.37;32.20
68994;BME280;56054;50.968;5.816;2023-04-19T16:32:23;101268.22;;;15.27;31.91
68994;BME280;56054;50.968;5.816;2023-04-19T16:35:24;101270.44;;;15.19;32.33
68994;BME280;56054;50.968;5.816;2023-04-19T16:38:24;101265.75;;;15.14;32.04
68994;BME280;56054;50.968;5.816;2023-04-19T16:41:25;101269.44;;;15.01;31.40